sensor_id;sensor_type;location;lat;lon;timestamp;temperature;humidity
32366;DHT22;18837;46.832;16.838;2022-09-21T00:01:26;15.00;76.60
32366;DHT22;18837;46.832;16.838;2022-09-21T00:04:05;15.10;76.50
32366;DHT22;18837;46.832;16.838;2022-09-21T00:06:58;15.00;76.70
32366;DHT22;18837;46.832;16.838;2022-09-21T00:09:24;15.00;77.40
32366;DHT22;18837;46.832;16.838;2022-09-21T00:11:49;15.00;76.10
32366;DHT22;18837;46.832;16.838;2022-09-21T00:14:15;15.00;75.70
32366;DHT22;18837;46.832;16.838;2022-09-21T00:16:41;15.00;75.30
32366;DHT22;18837;46.832;16.838;2022-09-21T00:19:08;14.90;75.60
32366;DHT22;18837;46.832;16.838;2022-09-21T00:21:34;14.90;74.80
32366;DHT22;18837;46.832;16.838;2022-09-21T00:24:06;14.90;75.70
32366;DHT22;18837;46.832;16.838;2022-09-21T00:26:32;14.90;74.70
32366;DHT22;18837;46.832;16.838;2022-09-21T00:29:00;14.80;75.50
32366;DHT22;18837;46.832;16.838;2022-09-21T00:31:26;14.80;75.30
32366;DHT22;18837;46.832;16.838;2022-09-21T00:33:52;14.70;75.30
32366;DHT22;18837;46.832;16.838;2022-09-21T00:36:21;14.70;75.60
32366;DHT22;18837;46.832;16.838;2022-09-21T00:39:03;14.60;75.40
32366;DHT22;18837;46.832;16.838;2022-09-21T00:41:41;14.60;76.00
32366;DHT22;18837;46.832;16.838;2022-09-21T00:44:30;14.60;76.40
32366;DHT22;18837;46.832;16.838;2022-09-21T00:50:14;14.70;77.60
32366;DHT22;18837;46.832;16.838;2022-09-21T00:52:43;14.80;76.60
32366;DHT22;18837;46.832;16.838;2022-09-21T00:55:14;14.80;76.50
32366;DHT22;18837;46.832;16.838;2022-09-21T00:57:43;14.80;77.70
32366;DHT22;18837;46.832;16.838;2022-09-21T01:00:10;14.80;76.20
32366;DHT22;18837;46.832;16.838;2022-09-21T01:02:37;14.80;76.10
32366;DHT22;18837;46.832;16.838;2022-09-21T01:05:05;14.80;75.20
32366;DHT22;18837;46.832;16.838;2022-09-21T01:07:34;14.80;76.10
32366;DHT22;18837;46.832;16.838;2022-09-21T01:10:05;14.80;75.70
32366;DHT22;18837;46.832;16.838;2022-09-21T01:24:44;14.50;75.10
32366;DHT22;18837;46.832;16.838;2022-09-21T01:27:52;14.40;76.90
32366;DHT22;18837;46.832;16.838;2022-09-21T01:30:21;14.50;77.10
32366;DHT22;18837;46.832;16.838;2022-09-21T01:33:20;14.40;74.90
32366;DHT22;18837;46.832;16.838;2022-09-21T01:35:51;14.40;75.30
32366;DHT22;18837;46.832;16.838;2022-09-21T01:38:23;14.40;75.70
32366;DHT22;18837;46.832;16.838;2022-09-21T01:40:52;14.40;76.50
32366;DHT22;18837;46.832;16.838;2022-09-21T01:43:28;14.50;76.50
32366;DHT22;18837;46.832;16.838;2022-09-21T01:46:11;14.50;76.20
32366;DHT22;18837;46.832;16.838;2022-09-21T01:49:03;14.60;76.30
32366;DHT22;18837;46.832;16.838;2022-09-21T01:51:47;14.60;77.40
32366;DHT22;18837;46.832;16.838;2022-09-21T01:54:20;14.60;77.50
32366;DHT22;18837;46.832;16.838;2022-09-21T01:56:53;14.60;75.90
32366;DHT22;18837;46.832;16.838;2022-09-21T02:02:18;14.60;77.50
32366;DHT22;18837;46.832;16.838;2022-09-21T02:04:44;14.60;75.30
32366;DHT22;18837;46.832;16.838;2022-09-21T02:07:11;14.60;75.20
32366;DHT22;18837;46.832;16.838;2022-09-21T02:09:36;14.50;74.10
32366;DHT22;18837;46.832;16.838;2022-09-21T02:12:03;14.40;74.50
32366;DHT22;18837;46.832;16.838;2022-09-21T02:14:31;14.30;75.00
32366;DHT22;18837;46.832;16.838;2022-09-21T02:20:37;14.30;76.80
32366;DHT22;18837;46.832;16.838;2022-09-21T02:23:42;14.20;76.70
32366;DHT22;18837;46.832;16.838;2022-09-21T02:26:41;14.30;77.10
32366;DHT22;18837;46.832;16.838;2022-09-21T02:29:34;14.20;75.50
32366;DHT22;18837;46.832;16.838;2022-09-21T02:32:11;14.20;75.40
32366;DHT22;18837;46.832;16.838;2022-09-21T02:34:52;14.20;77.00
32366;DHT22;18837;46.832;16.838;2022-09-21T02:37:27;14.20;76.00
32366;DHT22;18837;46.832;16.838;2022-09-21T02:40:28;14.20;76.30
32366;DHT22;18837;46.832;16.838;2022-09-21T02:46:31;14.30;77.20
32366;DHT22;18837;46.832;16.838;2022-09-21T02:49:09;14.30;76.80
32366;DHT22;18837;46.832;16.838;2022-09-21T02:51:39;14.40;76.00
32366;DHT22;18837;46.832;16.838;2022-09-21T02:54:18;14.40;75.90
32366;DHT22;18837;46.832;16.838;2022-09-21T02:56:47;14.40;75.60
32366;DHT22;18837;46.832;16.838;2022-09-21T02:59:15;14.40;75.50
32366;DHT22;18837;46.832;16.838;2022-09-21T03:01:41;14.30;74.40
32366;DHT22;18837;46.832;16.838;2022-09-21T03:04:09;14.30;74.80
32366;DHT22;18837;46.832;16.838;2022-09-21T03:06:35;14.20;75.10
32366;DHT22;18837;46.832;16.838;2022-09-21T03:09:01;14.20;75.10
32366;DHT22;18837;46.832;16.838;2022-09-21T03:11:27;14.10;75.70
32366;DHT22;18837;46.832;16.838;2022-09-21T03:13:52;14.10;75.80
32366;DHT22;18837;46.832;16.838;2022-09-21T03:16:19;14.10;75.20
32366;DHT22;18837;46.832;16.838;2022-09-21T03:18:45;14.00;75.60
32366;DHT22;18837;46.832;16.838;2022-09-21T03:21:11;14.00;75.90
32366;DHT22;18837;46.832;16.838;2022-09-21T03:23:38;14.10;75.80
32366;DHT22;18837;46.832;16.838;2022-09-21T03:26:04;14.00;75.60
32366;DHT22;18837;46.832;16.838;2022-09-21T03:28:34;14.00;75.80
32366;DHT22;18837;46.832;16.838;2022-09-21T03:31:05;14.00;76.40
32366;DHT22;18837;46.832;16.838;2022-09-21T03:33:31;14.00;76.20
32366;DHT22;18837;46.832;16.838;2022-09-21T03:35:57;14.00;76.80
32366;DHT22;18837;46.832;16.838;2022-09-21T03:38:23;14.10;76.80
32366;DHT22;18837;46.832;16.838;2022-09-21T03:40:51;14.10;76.40
32366;DHT22;18837;46.832;16.838;2022-09-21T03:43:17;14.20;76.80
32366;DHT22;18837;46.832;16.838;2022-09-21T03:45:43;14.20;76.40
32366;DHT22;18837;46.832;16.838;2022-09-21T03:48:15;14.20;76.40
32366;DHT22;18837;46.832;16.838;2022-09-21T03:50:41;14.20;76.20
32366;DHT22;18837;46.832;16.838;2022-09-21T03:53:07;14.20;75.20
32366;DHT22;18837;46.832;16.838;2022-09-21T03:55:33;14.20;75.00
32366;DHT22;18837;46.832;16.838;2022-09-21T03:57:59;14.10;75.40
32366;DHT22;18837;46.832;16.838;2022-09-21T04:00:25;14.10;75.20
32366;DHT22;18837;46.832;16.838;2022-09-21T04:02:57;14.00;75.40
32366;DHT22;18837;46.832;16.838;2022-09-21T04:05:28;14.00;75.90
32366;DHT22;18837;46.832;16.838;2022-09-21T04:07:55;13.90;76.00
32366;DHT22;18837;46.832;16.838;2022-09-21T04:10:22;13.90;76.00
32366;DHT22;18837;46.832;16.838;2022-09-21T04:13:00;13.90;75.90
32366;DHT22;18837;46.832;16.838;2022-09-21T04:15:27;13.90;75.20
32366;DHT22;18837;46.832;16.838;2022-09-21T04:17:53;13.90;76.10
32366;DHT22;18837;46.832;16.838;2022-09-21T04:20:19;13.70;75.70
32366;DHT22;18837;46.832;16.838;2022-09-21T04:22:47;13.80;75.90
32366;DHT22;18837;46.832;16.838;2022-09-21T04:25:13;13.80;75.80
32366;DHT22;18837;46.832;16.838;2022-09-21T04:27:40;13.80;75.70
32366;DHT22;18837;46.832;16.838;2022-09-21T04:30:06;13.80;76.40
32366;DHT22;18837;46.832;16.838;2022-09-21T04:32:32;13.90;77.00
32366;DHT22;18837;46.832;16.838;2022-09-21T04:34:58;13.90;76.10
32366;DHT22;18837;46.832;16.838;2022-09-21T04:37:27;13.90;76.10
32366;DHT22;18837;46.832;16.838;2022-09-21T04:39:53;14.00;76.80
32366;DHT22;18837;46.832;16.838;2022-09-21T04:42:18;14.00;75.80
32366;DHT22;18837;46.832;16.838;2022-09-21T04:44:44;14.00;75.90
32366;DHT22;18837;46.832;16.838;2022-09-21T04:47:10;14.10;75.50
32366;DHT22;18837;46.832;16.838;2022-09-21T04:49:36;14.00;74.80
32366;DHT22;18837;46.832;16.838;2022-09-21T04:52:03;14.00;74.90
32366;DHT22;18837;46.832;16.838;2022-09-21T04:54:28;13.90;75.60
32366;DHT22;18837;46.832;16.838;2022-09-21T04:56:54;13.90;75.30
32366;DHT22;18837;46.832;16.838;2022-09-21T04:59:19;13.80;75.90
32366;DHT22;18837;46.832;16.838;2022-09-21T05:01:45;13.80;75.80
32366;DHT22;18837;46.832;16.838;2022-09-21T05:04:11;13.80;76.00
32366;DHT22;18837;46.832;16.838;2022-09-21T05:06:36;13.80;75.80
32366;DHT22;18837;46.832;16.838;2022-09-21T05:09:02;13.70;75.30
32366;DHT22;18837;46.832;16.838;2022-09-21T05:11:50;13.70;77.10
32366;DHT22;18837;46.832;16.838;2022-09-21T05:14:17;13.70;76.30
32366;DHT22;18837;46.832;16.838;2022-09-21T05:16:48;13.70;76.30
32366;DHT22;18837;46.832;16.838;2022-09-21T05:19:14;13.60;76.60
32366;DHT22;18837;46.832;16.838;2022-09-21T05:21:40;13.70;75.70
32366;DHT22;18837;46.832;16.838;2022-09-21T05:24:06;13.70;76.40
32366;DHT22;18837;46.832;16.838;2022-09-21T05:26:31;13.70;76.80
32366;DHT22;18837;46.832;16.838;2022-09-21T05:28:57;13.80;76.30
32366;DHT22;18837;46.832;16.838;2022-09-21T05:31:47;13.80;76.40
32366;DHT22;18837;46.832;16.838;2022-09-21T05:39:51;13.80;77.20
32366;DHT22;18837;46.832;16.838;2022-09-21T05:42:17;13.80;76.70
32366;DHT22;18837;46.832;16.838;2022-09-21T05:44:43;13.90;76.40
32366;DHT22;18837;46.832;16.838;2022-09-21T05:47:25;13.80;76.10
32366;DHT22;18837;46.832;16.838;2022-09-21T05:50:02;13.80;76.10
32366;DHT22;18837;46.832;16.838;2022-09-21T05:58:20;13.70;77.40
32366;DHT22;18837;46.832;16.838;2022-09-21T06:03:41;13.70;77.50
32366;DHT22;18837;46.832;16.838;2022-09-21T06:06:08;13.60;76.90
32366;DHT22;18837;46.832;16.838;2022-09-21T06:08:34;13.60;76.70
32366;DHT22;18837;46.832;16.838;2022-09-21T06:11:00;13.60;76.50
32366;DHT22;18837;46.832;16.838;2022-09-21T06:13:25;13.60;76.90
32366;DHT22;18837;46.832;16.838;2022-09-21T06:15:51;13.60;76.50
32366;DHT22;18837;46.832;16.838;2022-09-21T06:18:19;13.70;77.30
32366;DHT22;18837;46.832;16.838;2022-09-21T06:20:45;13.60;76.90
32366;DHT22;18837;46.832;16.838;2022-09-21T06:23:12;13.70;77.60
32366;DHT22;18837;46.832;16.838;2022-09-21T06:25:38;13.70;76.70
32366;DHT22;18837;46.832;16.838;2022-09-21T06:28:06;13.70;76.90
32366;DHT22;18837;46.832;16.838;2022-09-21T06:30:32;13.80;76.80
32366;DHT22;18837;46.832;16.838;2022-09-21T06:33:05;13.80;77.60
32366;DHT22;18837;46.832;16.838;2022-09-21T06:35:40;13.80;76.70
32366;DHT22;18837;46.832;16.838;2022-09-21T06:38:06;13.80;76.90
32366;DHT22;18837;46.832;16.838;2022-09-21T06:40:34;13.80;77.00
32366;DHT22;18837;46.832;16.838;2022-09-21T06:43:02;13.80;76.90
32366;DHT22;18837;46.832;16.838;2022-09-21T06:45:29;13.80;75.40
32366;DHT22;18837;46.832;16.838;2022-09-21T06:47:55;13.70;76.60
32366;DHT22;18837;46.832;16.838;2022-09-21T06:50:21;13.70;76.60
32366;DHT22;18837;46.832;16.838;2022-09-21T06:53:02;13.70;76.50
32366;DHT22;18837;46.832;16.838;2022-09-21T06:55:31;13.70;77.40
32366;DHT22;18837;46.832;16.838;2022-09-21T06:58:01;13.70;76.90
32366;DHT22;18837;46.832;16.838;2022-09-21T07:00:27;13.70;77.40
32366;DHT22;18837;46.832;16.838;2022-09-21T07:02:53;13.70;77.10
32366;DHT22;18837;46.832;16.838;2022-09-21T07:05:19;13.70;76.60
32366;DHT22;18837;46.832;16.838;2022-09-21T07:07:44;13.70;77.10
32366;DHT22;18837;46.832;16.838;2022-09-21T07:10:10;13.70;76.90
32366;DHT22;18837;46.832;16.838;2022-09-21T07:12:36;13.80;77.40
32366;DHT22;18837;46.832;16.838;2022-09-21T07:15:04;13.80;77.40
32366;DHT22;18837;46.832;16.838;2022-09-21T07:17:31;13.80;77.70
32366;DHT22;18837;46.832;16.838;2022-09-21T07:19:57;13.80;77.30
32366;DHT22;18837;46.832;16.838;2022-09-21T07:22:23;13.90;77.30
32366;DHT22;18837;46.832;16.838;2022-09-21T07:24:48;13.90;77.40
32366;DHT22;18837;46.832;16.838;2022-09-21T07:27:14;14.00;77.20
32366;DHT22;18837;46.832;16.838;2022-09-21T07:29:39;14.00;76.80
32366;DHT22;18837;46.832;16.838;2022-09-21T07:32:06;14.00;76.60
32366;DHT22;18837;46.832;16.838;2022-09-21T07:34:35;14.00;76.80
32366;DHT22;18837;46.832;16.838;2022-09-21T07:37:02;14.10;76.60
32366;DHT22;18837;46.832;16.838;2022-09-21T07:39:28;14.10;76.40
32366;DHT22;18837;46.832;16.838;2022-09-21T07:41:54;14.10;76.70
32366;DHT22;18837;46.832;16.838;2022-09-21T07:44:19;14.10;76.80
32366;DHT22;18837;46.832;16.838;2022-09-21T07:46:50;14.10;76.70
32366;DHT22;18837;46.832;16.838;2022-09-21T07:49:16;14.10;77.30
32366;DHT22;18837;46.832;16.838;2022-09-21T07:51:42;14.10;76.60
32366;DHT22;18837;46.832;16.838;2022-09-21T07:54:11;14.10;76.90
32366;DHT22;18837;46.832;16.838;2022-09-21T07:56:43;14.10;77.60
32366;DHT22;18837;46.832;16.838;2022-09-21T07:59:29;14.10;77.30
32366;DHT22;18837;46.832;16.838;2022-09-21T08:01:56;14.10;76.60
32366;DHT22;18837;46.832;16.838;2022-09-21T08:04:22;14.20;76.80
32366;DHT22;18837;46.832;16.838;2022-09-21T08:06:48;14.20;77.20
32366;DHT22;18837;46.832;16.838;2022-09-21T08:09:13;14.20;76.50
32366;DHT22;18837;46.832;16.838;2022-09-21T08:11:58;14.20;77.20
32366;DHT22;18837;46.832;16.838;2022-09-21T08:14:31;14.20;77.20
32366;DHT22;18837;46.832;16.838;2022-09-21T08:16:57;14.30;77.20
32366;DHT22;18837;46.832;16.838;2022-09-21T08:19:22;14.30;76.70
32366;DHT22;18837;46.832;16.838;2022-09-21T08:21:50;14.40;76.60
32366;DHT22;18837;46.832;16.838;2022-09-21T08:24:16;14.40;76.80
32366;DHT22;18837;46.832;16.838;2022-09-21T08:26:41;14.50;76.20
32366;DHT22;18837;46.832;16.838;2022-09-21T08:29:08;14.50;73.10
32366;DHT22;18837;46.832;16.838;2022-09-21T08:31:33;14.50;74.20
32366;DHT22;18837;46.832;16.838;2022-09-21T08:34:09;14.50;74.00
32366;DHT22;18837;46.832;16.838;2022-09-21T08:36:35;14.50;77.20
32366;DHT22;18837;46.832;16.838;2022-09-21T08:39:01;14.50;76.30
32366;DHT22;18837;46.832;16.838;2022-09-21T08:44:52;14.50;77.20
32366;DHT22;18837;46.832;16.838;2022-09-21T08:50:29;14.50;77.20
32366;DHT22;18837;46.832;16.838;2022-09-21T08:53:00;14.60;77.30
32366;DHT22;18837;46.832;16.838;2022-09-21T08:55:29;14.60;75.40
32366;DHT22;18837;46.832;16.838;2022-09-21T08:57:55;14.60;75.20
32366;DHT22;18837;46.832;16.838;2022-09-21T09:00:21;14.60;75.20
32366;DHT22;18837;46.832;16.838;2022-09-21T09:05:43;14.60;77.40
32366;DHT22;18837;46.832;16.838;2022-09-21T09:11:13;14.80;77.10
32366;DHT22;18837;46.832;16.838;2022-09-21T09:19:26;15.00;75.60
32366;DHT22;18837;46.832;16.838;2022-09-21T09:21:55;15.10;75.20
32366;DHT22;18837;46.832;16.838;2022-09-21T09:24:32;15.20;73.40
32366;DHT22;18837;46.832;16.838;2022-09-21T09:27:17;15.20;76.40
32366;DHT22;18837;46.832;16.838;2022-09-21T09:30:07;15.20;73.00
32366;DHT22;18837;46.832;16.838;2022-09-21T09:32:50;15.20;74.20
32366;DHT22;18837;46.832;16.838;2022-09-21T09:35:37;15.20;76.60
32366;DHT22;18837;46.832;16.838;2022-09-21T09:38:13;15.20;77.10
32366;DHT22;18837;46.832;16.838;2022-09-21T09:51:40;15.20;74.70
32366;DHT22;18837;46.832;16.838;2022-09-21T09:54:13;15.20;75.30
32366;DHT22;18837;46.832;16.838;2022-09-21T09:56:39;15.30;74.50
32366;DHT22;18837;46.832;16.838;2022-09-21T09:59:17;15.30;75.60
32366;DHT22;18837;46.832;16.838;2022-09-21T11:01:42;15.90;72.70
32366;DHT22;18837;46.832;16.838;2022-09-21T11:04:14;15.90;71.80
32366;DHT22;18837;46.832;16.838;2022-09-21T11:06:45;16.00;72.00
32366;DHT22;18837;46.832;16.838;2022-09-21T11:18:45;16.20;71.30
32366;DHT22;18837;46.832;16.838;2022-09-21T11:38:04;16.00;67.40
32366;DHT22;18837;46.832;16.838;2022-09-21T11:50:19;16.20;67.30
32366;DHT22;18837;46.832;16.838;2022-09-21T12:16:20;16.60;68.10
32366;DHT22;18837;46.832;16.838;2022-09-21T12:22:33;16.50;68.70
32366;DHT22;18837;46.832;16.838;2022-09-21T12:25:19;16.50;68.90
32366;DHT22;18837;46.832;16.838;2022-09-21T12:30:56;16.40;69.30
32366;DHT22;18837;46.832;16.838;2022-09-21T12:36:06;16.40;69.80
32366;DHT22;18837;46.832;16.838;2022-09-21T12:38:44;16.30;69.70
32366;DHT22;18837;46.832;16.838;2022-09-21T12:41:19;16.30;69.30
32366;DHT22;18837;46.832;16.838;2022-09-21T12:43:59;16.30;68.40
32366;DHT22;18837;46.832;16.838;2022-09-21T12:46:39;16.30;69.70
32366;DHT22;18837;46.832;16.838;2022-09-21T12:49:19;16.30;70.00
32366;DHT22;18837;46.832;16.838;2022-09-21T12:51:56;16.30;68.70
32366;DHT22;18837;46.832;16.838;2022-09-21T12:55:17;16.40;68.40
32366;DHT22;18837;46.832;16.838;2022-09-21T12:58:16;16.50;69.20
32366;DHT22;18837;46.832;16.838;2022-09-21T13:03:41;16.60;68.30
32366;DHT22;18837;46.832;16.838;2022-09-21T13:08:54;16.70;67.00
32366;DHT22;18837;46.832;16.838;2022-09-21T13:11:26;16.70;67.50
32366;DHT22;18837;46.832;16.838;2022-09-21T13:13:56;16.70;67.50
32366;DHT22;18837;46.832;16.838;2022-09-21T13:18:58;16.60;67.30
32366;DHT22;18837;46.832;16.838;2022-09-21T13:21:26;16.60;67.90
32366;DHT22;18837;46.832;16.838;2022-09-21T13:24:01;16.50;67.60
32366;DHT22;18837;46.832;16.838;2022-09-21T13:26:50;16.60;68.70
32366;DHT22;18837;46.832;16.838;2022-09-21T13:31:57;16.60;68.50
32366;DHT22;18837;46.832;16.838;2022-09-21T13:34:41;16.60;66.60
32366;DHT22;18837;46.832;16.838;2022-09-21T13:48:18;16.50;62.60
32366;DHT22;18837;46.832;16.838;2022-09-21T13:50:45;16.60;64.80
32366;DHT22;18837;46.832;16.838;2022-09-21T13:55:53;16.80;62.60
32366;DHT22;18837;46.832;16.838;2022-09-21T13:58:28;16.90;64.30
32366;DHT22;18837;46.832;16.838;2022-09-21T14:01:32;16.90;62.50
32366;DHT22;18837;46.832;16.838;2022-09-21T14:04:32;17.00;63.30
32366;DHT22;18837;46.832;16.838;2022-09-21T14:07:07;17.10;63.80
32366;DHT22;18837;46.832;16.838;2022-09-21T14:09:41;17.10;65.20
32366;DHT22;18837;46.832;16.838;2022-09-21T14:12:20;17.00;65.70
32366;DHT22;18837;46.832;16.838;2022-09-21T14:17:41;17.00;66.10
32366;DHT22;18837;46.832;16.838;2022-09-21T14:20:34;16.90;66.70
32366;DHT22;18837;46.832;16.838;2022-09-21T14:28:15;16.90;66.80
32366;DHT22;18837;46.832;16.838;2022-09-21T14:30:49;16.80;67.30
32366;DHT22;18837;46.832;16.838;2022-09-21T14:33:29;16.90;67.30
32366;DHT22;18837;46.832;16.838;2022-09-21T14:36:05;16.90;67.20
32366;DHT22;18837;46.832;16.838;2022-09-21T14:39:20;16.90;66.90
32366;DHT22;18837;46.832;16.838;2022-09-21T14:41:49;16.90;66.90
32366;DHT22;18837;46.832;16.838;2022-09-21T14:44:21;17.00;67.10
32366;DHT22;18837;46.832;16.838;2022-09-21T14:52:31;17.20;66.80
32366;DHT22;18837;46.832;16.838;2022-09-21T15:00:52;17.30;65.70
32366;DHT22;18837;46.832;16.838;2022-09-21T15:21:47;16.80;66.10
32366;DHT22;18837;46.832;16.838;2022-09-21T15:24:26;16.80;66.60
32366;DHT22;18837;46.832;16.838;2022-09-21T15:27:00;16.80;66.90
32366;DHT22;18837;46.832;16.838;2022-09-21T15:29:33;16.70;67.90
32366;DHT22;18837;46.832;16.838;2022-09-21T15:31:59;16.70;67.30
32366;DHT22;18837;46.832;16.838;2022-09-21T15:34:25;16.70;67.60
32366;DHT22;18837;46.832;16.838;2022-09-21T15:36:53;16.70;67.60
32366;DHT22;18837;46.832;16.838;2022-09-21T15:39:30;16.70;67.50
32366;DHT22;18837;46.832;16.838;2022-09-21T15:44:47;16.80;67.30
32366;DHT22;18837;46.832;16.838;2022-09-21T15:47:19;16.80;67.10
32366;DHT22;18837;46.832;16.838;2022-09-21T15:49:51;16.90;67.00
32366;DHT22;18837;46.832;16.838;2022-09-21T15:52:50;16.90;66.60
32366;DHT22;18837;46.832;16.838;2022-09-21T15:55:20;17.00;66.60
32366;DHT22;18837;46.832;16.838;2022-09-21T15:57:52;17.00;66.70
32366;DHT22;18837;46.832;16.838;2022-09-21T16:00:22;17.00;67.20
32366;DHT22;18837;46.832;16.838;2022-09-21T16:03:17;16.90;67.10
32366;DHT22;18837;46.832;16.838;2022-09-21T16:05:51;16.90;67.40
32366;DHT22;18837;46.832;16.838;2022-09-21T16:08:26;16.80;67.00
32366;DHT22;18837;46.832;16.838;2022-09-21T16:10:52;16.80;66.90
32366;DHT22;18837;46.832;16.838;2022-09-21T16:13:34;16.70;67.00
32366;DHT22;18837;46.832;16.838;2022-09-21T16:16:18;16.60;67.60
32366;DHT22;18837;46.832;16.838;2022-09-21T16:18:46;16.50;67.50
32366;DHT22;18837;46.832;16.838;2022-09-21T16:21:33;16.50;67.40
32366;DHT22;18837;46.832;16.838;2022-09-21T16:24:20;16.40;67.10
32366;DHT22;18837;46.832;16.838;2022-09-21T16:27:01;16.40;67.70
32366;DHT22;18837;46.832;16.838;2022-09-21T16:29:38;16.40;67.60
32366;DHT22;18837;46.832;16.838;2022-09-21T16:32:31;16.30;67.70
32366;DHT22;18837;46.832;16.838;2022-09-21T16:35:27;16.30;67.90
32366;DHT22;18837;46.832;16.838;2022-09-21T16:37:54;16.30;69.30
32366;DHT22;18837;46.832;16.838;2022-09-21T16:40:28;16.40;68.30
32366;DHT22;18837;46.832;16.838;2022-09-21T16:42:55;16.40;68.20
32366;DHT22;18837;46.832;16.838;2022-09-21T16:45:29;16.50;68.20
32366;DHT22;18837;46.832;16.838;2022-09-21T16:47:56;16.50;68.00
32366;DHT22;18837;46.832;16.838;2022-09-21T16:50:22;16.50;67.90
32366;DHT22;18837;46.832;16.838;2022-09-21T16:52:48;16.60;67.90
32366;DHT22;18837;46.832;16.838;2022-09-21T16:55:21;16.60;68.10
32366;DHT22;18837;46.832;16.838;2022-09-21T16:57:53;16.60;67.90
32366;DHT22;18837;46.832;16.838;2022-09-21T17:00:19;16.60;67.90
32366;DHT22;18837;46.832;16.838;2022-09-21T17:02:49;16.50;67.60
32366;DHT22;18837;46.832;16.838;2022-09-21T17:05:15;16.40;67.90
32366;DHT22;18837;46.832;16.838;2022-09-21T17:07:54;16.40;68.10
32366;DHT22;18837;46.832;16.838;2022-09-21T17:10:23;16.30;68.20
32366;DHT22;18837;46.832;16.838;2022-09-21T17:12:54;16.30;68.40
32366;DHT22;18837;46.832;16.838;2022-09-21T17:15:20;16.20;68.50
32366;DHT22;18837;46.832;16.838;2022-09-21T17:17:47;16.20;68.80
32366;DHT22;18837;46.832;16.838;2022-09-21T17:20:27;16.10;68.30
32366;DHT22;18837;46.832;16.838;2022-09-21T17:22:55;16.10;68.70
32366;DHT22;18837;46.832;16.838;2022-09-21T17:25:20;16.00;69.20
32366;DHT22;18837;46.832;16.838;2022-09-21T17:27:49;16.10;69.40
32366;DHT22;18837;46.832;16.838;2022-09-21T17:30:24;16.00;69.30
32366;DHT22;18837;46.832;16.838;2022-09-21T17:32:51;16.00;69.30
32366;DHT22;18837;46.832;16.838;2022-09-21T17:35:40;16.00;69.60
32366;DHT22;18837;46.832;16.838;2022-09-21T17:38:06;16.00;69.40
32366;DHT22;18837;46.832;16.838;2022-09-21T17:40:36;16.00;69.60
32366;DHT22;18837;46.832;16.838;2022-09-21T17:48:25;16.10;70.20
32366;DHT22;18837;46.832;16.838;2022-09-21T17:50:51;16.10;69.70
32366;DHT22;18837;46.832;16.838;2022-09-21T17:53:17;16.20;69.80
32366;DHT22;18837;46.832;16.838;2022-09-21T17:59:02;16.10;70.50
32366;DHT22;18837;46.832;16.838;2022-09-21T18:01:36;16.10;70.50
32366;DHT22;18837;46.832;16.838;2022-09-21T18:04:06;16.00;69.80
32366;DHT22;18837;46.832;16.838;2022-09-21T18:06:34;16.00;70.20
32366;DHT22;18837;46.832;16.838;2022-09-21T18:09:00;15.90;69.90
32366;DHT22;18837;46.832;16.838;2022-09-21T18:21:58;15.70;71.00
32366;DHT22;18837;46.832;16.838;2022-09-21T18:24:27;15.70;70.50
32366;DHT22;18837;46.832;16.838;2022-09-21T18:26:53;15.70;70.50
32366;DHT22;18837;46.832;16.838;2022-09-21T18:29:33;15.70;71.30
32366;DHT22;18837;46.832;16.838;2022-09-21T18:45:20;15.80;71.90
32366;DHT22;18837;46.832;16.838;2022-09-21T18:51:20;15.80;71.70
32366;DHT22;18837;46.832;16.838;2022-09-21T18:53:50;15.80;69.90
32366;DHT22;18837;46.832;16.838;2022-09-21T18:56:18;15.70;71.80
32366;DHT22;18837;46.832;16.838;2022-09-21T18:58:44;15.70;71.30
32366;DHT22;18837;46.832;16.838;2022-09-21T19:01:11;15.70;71.50
32366;DHT22;18837;46.832;16.838;2022-09-21T19:03:38;15.70;71.00
32366;DHT22;18837;46.832;16.838;2022-09-21T19:32:37;15.40;73.60
32366;DHT22;18837;46.832;16.838;2022-09-21T19:35:25;15.40;73.50
32366;DHT22;18837;46.832;16.838;2022-09-21T19:37:55;15.40;72.30
32366;DHT22;18837;46.832;16.838;2022-09-21T19:40:40;15.40;70.80
32366;DHT22;18837;46.832;16.838;2022-09-21T19:51:16;15.50;71.60
32366;DHT22;18837;46.832;16.838;2022-09-21T19:53:44;15.40;71.00
32366;DHT22;18837;46.832;16.838;2022-09-21T19:56:29;15.40;71.30
32366;DHT22;18837;46.832;16.838;2022-09-21T19:59:14;15.40;70.70
32366;DHT22;18837;46.832;16.838;2022-09-21T20:02:01;15.40;71.80
32366;DHT22;18837;46.832;16.838;2022-09-21T20:04:44;15.30;71.00
32366;DHT22;18837;46.832;16.838;2022-09-21T20:10:16;15.20;71.30
32366;DHT22;18837;46.832;16.838;2022-09-21T20:20:49;15.20;73.80
32366;DHT22;18837;46.832;16.838;2022-09-21T20:23:16;15.10;72.00
32366;DHT22;18837;46.832;16.838;2022-09-21T20:28:13;15.20;71.90
32366;DHT22;18837;46.832;16.838;2022-09-21T20:30:39;15.20;72.40
32366;DHT22;18837;46.832;16.838;2022-09-21T20:33:10;15.20;71.70
32366;DHT22;18837;46.832;16.838;2022-09-21T20:35:38;15.20;71.20
32366;DHT22;18837;46.832;16.838;2022-09-21T20:38:05;15.20;71.80
32366;DHT22;18837;46.832;16.838;2022-09-21T20:40:31;15.20;72.10
32366;DHT22;18837;46.832;16.838;2022-09-21T20:42:57;15.20;72.00
32366;DHT22;18837;46.832;16.838;2022-09-21T20:45:25;15.20;72.20
32366;DHT22;18837;46.832;16.838;2022-09-21T20:47:53;15.20;71.50
32366;DHT22;18837;46.832;16.838;2022-09-21T20:50:20;15.20;71.00
32366;DHT22;18837;46.832;16.838;2022-09-21T20:52:46;15.20;71.20
32366;DHT22;18837;46.832;16.838;2022-09-21T20:55:16;15.20;72.20
32366;DHT22;18837;46.832;16.838;2022-09-21T20:57:44;15.10;72.30
32366;DHT22;18837;46.832;16.838;2022-09-21T21:00:12;15.10;72.50
32366;DHT22;18837;46.832;16.838;2022-09-21T21:02:39;15.10;72.40
32366;DHT22;18837;46.832;16.838;2022-09-21T21:05:05;15.10;71.80
32366;DHT22;18837;46.832;16.838;2022-09-21T21:07:32;15.10;73.40
32366;DHT22;18837;46.832;16.838;2022-09-21T21:09:58;15.00;71.80
32366;DHT22;18837;46.832;16.838;2022-09-21T21:12:25;15.00;71.90
32366;DHT22;18837;46.832;16.838;2022-09-21T21:14:50;15.00;72.30
32366;DHT22;18837;46.832;16.838;2022-09-21T21:17:16;15.00;72.90
32366;DHT22;18837;46.832;16.838;2022-09-21T21:19:43;15.00;72.90
32366;DHT22;18837;46.832;16.838;2022-09-21T21:22:10;15.00;72.60
32366;DHT22;18837;46.832;16.838;2022-09-21T21:24:36;15.00;72.00
32366;DHT22;18837;46.832;16.838;2022-09-21T21:27:25;15.00;74.70
32366;DHT22;18837;46.832;16.838;2022-09-21T21:29:53;15.00;72.00